Time;durP1;ratioP1;P1;durP2;ratioP2;P2;SDS_P1;SDS_P2;PMS_P1;PMS_P2;Temp;Humidity;BMP_temperature;BMP_pressure;BME280_temperature;BME280_humidity;BME280_pressure;Samples;Min_cycle;Max_cycle;Signal;HPM_P1;HPM_P2
2022/08/06 00:02:36;;;;;;;1.00;1.00;;;24.00;47.00;;;;;;5130073;27;20463;-78
2022/08/06 00:05:05;;;;;;;1.17;0.90;;;24.00;47.00;;;;;;5130358;27;20452;-79
2022/08/06 00:07:33;;;;;;;0.70;0.70;;;24.00;46.80;;;;;;5131512;28;20496;-78
2022/08/06 00:10:15;;;;;;;1.53;0.80;;;24.00;46.70;;;;;;5129476;27;20473;-78
2022/08/06 00:12:43;;;;;;;0.80;0.80;;;24.00;46.60;;;;;;5132513;28;20501;-78
2022/08/06 00:15:14;;;;;;;1.53;0.80;;;24.00;46.60;;;;;;5131954;28;20544;-79
2022/08/06 00:17:47;;;;;;;1.90;1.00;;;24.00;46.50;;;;;;5132618;28;20433;-79
2022/08/06 00:20:17;;;;;;;0.90;0.90;;;24.00;46.50;;;;;;5129550;28;20442;-79
2022/08/06 00:22:58;;;;;;;0.80;0.80;;;23.90;46.30;;;;;;5124922;28;20453;-77
2022/08/06 00:25:27;;;;;;;1.40;0.93;;;24.00;46.40;;;;;;5133062;28;20461;-77
2022/08/06 00:28:02;;;;;;;1.03;0.90;;;24.00;46.20;;;;;;5134569;27;20438;-77
2022/08/06 00:30:36;;;;;;;0.87;0.87;;;23.90;46.00;;;;;;5136733;27;20905;-79
2022/08/06 00:33:04;;;;;;;1.03;0.90;;;23.90;46.00;;;;;;5136390;27;20512;-79
2022/08/06 00:35:32;;;;;;;0.83;0.83;;;23.90;46.20;;;;;;5126863;27;21057;-79
2022/08/06 00:38:01;;;;;;;1.07;1.00;;;23.90;46.10;;;;;;5137237;27;20401;-77
2022/08/06 00:40:31;;;;;;;1.07;0.93;;;23.90;46.10;;;;;;5134575;27;20504;-78
2022/08/06 00:42:59;;;;;;;0.90;0.90;;;23.80;46.00;;;;;;5135884;27;20433;-77
2022/08/06 00:45:32;;;;;;;2.47;0.80;;;23.80;46.00;;;;;;5145003;27;20451;-78
2022/08/06 00:48:05;;;;;;;0.80;0.80;;;23.80;46.00;;;;;;5158954;27;20397;-78
2022/08/06 00:50:34;;;;;;;0.80;0.80;;;23.80;46.10;;;;;;5157718;27;20434;-77
2022/08/06 00:53:02;;;;;;;1.07;1.00;;;23.90;45.90;;;;;;5152922;27;20454;-77
2022/08/06 00:55:31;;;;;;;0.80;0.80;;;23.80;45.70;;;;;;5135228;27;20463;-79
2022/08/06 00:58:05;;;;;;;0.80;0.80;;;23.80;45.70;;;;;;5116722;28;20439;-77
2022/08/06 01:00:32;;;;;;;0.90;0.90;;;23.80;45.70;;;;;;5115193;28;20436;-79
2022/08/06 01:03:07;;;;;;;0.90;0.90;;;23.80;45.60;;;;;;5116422;28;20438;-78
2022/08/06 01:05:54;;;;;;;2.43;1.07;;;23.80;45.60;;;;;;5115883;28;20901;-78
2022/08/06 01:08:42;;;;;;;1.73;0.80;;;23.80;45.60;;;;;;5116646;28;20410;-78
2022/08/06 01:11:17;;;;;;;1.00;1.00;;;23.80;45.60;;;;;;5136529;27;20435;-78
2022/08/06 01:13:45;;;;;;;1.33;0.90;;;23.80;45.50;;;;;;5136859;27;20443;-78
2022/08/06 01:16:36;;;;;;;1.20;0.90;;;23.80;45.40;;;;;;5136517;27;20504;-78
2022/08/06 01:19:17;;;;;;;0.80;0.80;;;23.70;45.40;;;;;;5136425;27;20433;-78
2022/08/06 01:21:57;;;;;;;0.80;0.80;;;23.70;45.40;;;;;;5137063;27;20433;-78
2022/08/06 01:24:51;;;;;;;1.53;0.90;;;23.70;45.30;;;;;;5135702;27;20444;-78
2022/08/06 01:27:45;;;;;;;1.43;1.00;;;23.70;45.10;;;;;;5131494;27;20434;-78
2022/08/06 01:30:14;;;;;;;0.97;0.93;;;23.70;45.10;;;;;;5116090;28;20531;-77
2022/08/06 01:32:49;;;;;;;1.37;0.90;;;23.70;45.30;;;;;;5114676;28;20455;-78
2022/08/06 01:35:27;;;;;;;0.90;0.90;;;23.70;45.20;;;;;;5115339;28;20495;-77
2022/08/06 01:38:16;;;;;;;0.80;0.80;;;23.70;45.00;;;;;;5115862;28;20410;-77
2022/08/06 01:40:45;;;;;;;1.00;0.90;;;23.70;45.20;;;;;;5114843;28;20432;-77
2022/08/06 01:43:20;;;;;;;0.83;0.83;;;23.70;44.90;;;;;;5113621;28;20535;-79
2022/08/06 01:46:08;;;;;;;1.00;0.80;;;23.60;44.80;;;;;;5127749;27;20394;-77
2022/08/06 01:48:37;;;;;;;1.53;0.90;;;23.60;44.90;;;;;;5135754;27;20497;-77
2022/08/06 01:51:07;;;;;;;1.13;0.80;;;23.60;44.90;;;;;;5134205;27;20439;-78
2022/08/06 01:53:55;;;;;;;2.30;0.90;;;23.60;44.70;;;;;;5130666;27;20453;-78
2022/08/06 01:56:35;;;;;;;0.97;0.97;;;23.60;44.80;;;;;;5145982;27;20851;-77
2022/08/06 01:59:27;;;;;;;1.43;0.90;;;23.60;44.70;;;;;;5151370;27;20428;-77
2022/08/06 02:01:57;;;;;;;0.80;0.80;;;23.60;44.70;;;;;;5126395;27;20439;-77
2022/08/06 02:04:28;;;;;;;0.90;0.90;;;23.60;44.70;;;;;;5135829;27;20475;-77
2022/08/06 02:06:57;;;;;;;0.73;0.73;;;23.50;44.40;;;;;;5135221;27;20439;-78
2022/08/06 02:09:24;;;;;;;1.10;1.00;;;23.50;44.70;;;;;;5136197;27;20443;-77
2022/08/06 02:12:02;;;;;;;1.00;1.00;;;23.50;44.50;;;;;;5135235;27;20452;-77
2022/08/06 02:14:38;;;;;;;1.07;0.87;;;23.50;44.70;;;;;;5135720;27;20473;-78
2022/08/06 02:17:11;;;;;;;0.90;0.90;;;23.50;45.20;;;;;;5132174;27;20443;-78
2022/08/06 02:19:41;;;;;;;3.67;0.80;;;23.50;44.40;;;;;;5135812;27;20459;-78
2022/08/06 02:22:27;;;;;;;0.97;0.87;;;23.50;44.50;;;;;;5136757;27;20466;-78
2022/08/06 02:24:58;;;;;;;1.23;1.00;;;23.40;44.40;;;;;;5136446;27;20505;-78
2022/08/06 02:27:29;;;;;;;0.97;0.97;;;23.40;44.20;;;;;;5136688;27;20468;-78
2022/08/06 02:30:12;;;;;;;0.83;0.83;;;23.40;44.40;;;;;;5137056;27;20494;-78
2022/08/06 02:32:41;;;;;;;1.10;0.90;;;23.30;44.30;;;;;;5136820;27;20410;-78
2022/08/06 02:35:10;;;;;;;0.90;0.90;;;23.30;44.40;;;;;;5130983;27;20444;-78
2022/08/06 02:37:41;;;;;;;0.90;0.90;;;23.30;44.30;;;;;;5127276;27;20474;-78
2022/08/06 02:40:36;;;;;;;1.23;1.10;;;23.30;44.50;;;;;;5147561;27;20442;-78
2022/08/06 02:43:09;;;;;;;0.83;0.83;;;23.30;44.30;;;;;;5114598;28;20406;-79
2022/08/06 02:45:40;;;;;;;1.03;1.03;;;23.30;44.20;;;;;;5113466;28;20476;-78
2022/08/06 02:48:27;;;;;;;0.80;0.80;;;23.20;44.10;;;;;;5116440;28;20418;-78
2022/08/06 02:51:00;;;;;;;0.80;0.80;;;23.20;44.20;;;;;;5118534;28;20467;-78
2022/08/06 02:53:31;;;;;;;0.93;0.93;;;23.20;44.10;;;;;;5137043;27;20510;-78
2022/08/06 02:56:13;;;;;;;0.80;0.80;;;23.20;44.20;;;;;;5136130;27;20449;-78
2022/08/06 02:58:42;;;;;;;2.20;0.97;;;23.10;44.20;;;;;;5136729;27;20445;-78
2022/08/06 03:01:27;;;;;;;0.90;0.80;;;23.20;44.20;;;;;;5135844;27;20478;-78
2022/08/06 03:03:58;;;;;;;0.80;0.80;;;23.10;44.10;;;;;;5136232;27;20465;-78
2022/08/06 03:06:27;;;;;;;0.90;0.90;;;23.10;44.00;;;;;;5134168;27;20434;-79
2022/08/06 03:08:57;;;;;;;0.90;0.90;;;23.10;44.00;;;;;;5128194;27;20521;-78
2022/08/06 03:11:26;;;;;;;0.90;0.90;;;23.10;44.20;;;;;;5136954;27;20438;-79
2022/08/06 03:13:58;;;;;;;0.90;0.90;;;23.10;44.00;;;;;;5135924;27;20447;-78
2022/08/06 03:16:28;;;;;;;1.03;0.93;;;23.10;44.10;;;;;;5129864;27;20440;-78
2022/08/06 03:18:56;;;;;;;0.90;0.90;;;23.00;43.90;;;;;;5134693;27;20450;-78
2022/08/06 03:21:44;;;;;;;1.37;1.00;;;23.00;44.20;;;;;;5147133;27;20767;-78
2022/08/06 03:24:22;;;;;;;1.20;1.00;;;23.00;44.00;;;;;;5131688;27;20474;-78
2022/08/06 03:26:53;;;;;;;1.07;0.80;;;23.00;44.00;;;;;;5134086;27;20459;-78
2022/08/06 03:29:22;;;;;;;0.87;0.80;;;23.00;43.80;;;;;;5133511;27;20466;-79
2022/08/06 03:31:52;;;;;;;0.80;0.80;;;23.00;44.00;;;;;;5134473;27;20472;-78
2022/08/06 03:34:26;;;;;;;0.90;0.90;;;23.00;43.90;;;;;;5133817;27;20486;-78
2022/08/06 03:36:55;;;;;;;0.83;0.83;;;23.00;43.70;;;;;;5133968;27;20454;-78
2022/08/06 03:39:23;;;;;;;1.43;0.90;;;23.00;43.80;;;;;;5129195;27;20538;-78
2022/08/06 03:41:51;;;;;;;1.47;1.00;;;22.90;43.80;;;;;;5133153;27;20530;-78
2022/08/06 03:44:35;;;;;;;1.10;1.00;;;22.90;43.90;;;;;;5134470;27;20474;-78
2022/08/06 03:47:08;;;;;;;2.50;1.00;;;22.90;43.90;;;;;;5133317;27;20422;-78
2022/08/06 03:49:42;;;;;;;0.93;0.90;;;22.80;43.80;;;;;;5134439;27;20470;-78
2022/08/06 03:52:13;;;;;;;1.20;1.10;;;22.80;43.90;;;;;;5133920;27;20446;-78
2022/08/06 03:54:58;;;;;;;0.90;0.90;;;22.80;43.80;;;;;;5133499;27;20459;-79
2022/08/06 03:57:34;;;;;;;1.00;1.00;;;22.80;43.90;;;;;;5132659;27;20554;-78
2022/08/06 04:00:18;;;;;;;0.90;0.90;;;22.80;43.70;;;;;;5134111;27;20443;-78
2022/08/06 04:02:57;;;;;;;1.07;0.97;;;22.80;43.80;;;;;;5133666;27;20443;-78
2022/08/06 04:05:30;;;;;;;1.00;0.90;;;22.80;43.70;;;;;;5133155;27;20501;-78
2022/08/06 04:07:59;;;;;;;0.90;0.90;;;22.70;43.70;;;;;;5134125;28;20476;-78
2022/08/06 04:10:34;;;;;;;1.10;1.10;;;22.70;43.80;;;;;;5133866;27;20461;-78
2022/08/06 04:13:06;;;;;;;0.97;0.97;;;22.70;43.80;;;;;;5132165;27;20818;-78
2022/08/06 04:15:55;;;;;;;0.83;0.83;;;22.70;43.70;;;;;;5133137;28;20415;-78
2022/08/06 04:18:26;;;;;;;1.43;1.33;;;22.70;44.20;;;;;;5134295;28;20470;-78
2022/08/06 04:20:55;;;;;;;1.10;1.10;;;22.70;43.70;;;;;;5134161;28;20480;-78
2022/08/06 04:23:43;;;;;;;1.20;1.10;;;22.70;43.70;;;;;;5134260;28;20467;-78
2022/08/06 04:26:14;;;;;;;0.70;0.70;;;22.70;43.60;;;;;;5132915;28;20462;-78
2022/08/06 04:28:43;;;;;;;0.80;0.80;;;22.70;44.20;;;;;;5134040;28;20416;-78
2022/08/06 04:31:24;;;;;;;1.00;1.00;;;22.70;43.50;;;;;;5127689;28;20486;-78
2022/08/06 04:34:13;;;;;;;1.20;1.10;;;22.70;43.50;;;;;;5128070;28;20421;-79
2022/08/06 04:36:41;;;;;;;1.00;1.00;;;22.70;43.40;;;;;;5133588;28;20406;-78
2022/08/06 04:39:20;;;;;;;0.90;0.90;;;22.80;43.40;;;;;;5134837;28;20523;-78
2022/08/06 04:42:05;;;;;;;1.17;1.10;;;22.70;43.30;;;;;;5134897;28;20437;-78
2022/08/06 04:44:48;;;;;;;0.90;0.90;;;22.60;43.40;;;;;;5135478;28;20455;-79
2022/08/06 04:47:27;;;;;;;0.90;0.80;;;22.60;43.50;;;;;;5132139;28;20505;-78
2022/08/06 04:50:10;;;;;;;1.13;0.90;;;22.60;43.50;;;;;;5124362;28;20435;-78
2022/08/06 04:52:38;;;;;;;1.43;1.00;;;22.60;43.50;;;;;;5131145;28;20470;-78
2022/08/06 04:55:18;;;;;;;0.90;0.90;;;22.60;43.50;;;;;;5130971;28;20433;-78
2022/08/06 04:57:52;;;;;;;1.20;1.10;;;22.60;43.60;;;;;;5131053;27;20450;-78
2022/08/06 05:00:29;;;;;;;0.70;0.70;;;22.60;43.40;;;;;;5131372;28;20438;-79
2022/08/06 05:03:17;;;;;;;1.00;1.00;;;22.50;43.30;;;;;;5131020;28;20439;-79
2022/08/06 05:06:10;;;;;;;2.13;0.90;;;22.60;43.40;;;;;;5122576;27;20451;-79
2022/08/06 05:08:40;;;;;;;0.90;0.90;;;22.50;43.40;;;;;;5130246;27;20431;-79
2022/08/06 05:11:13;;;;;;;1.27;1.00;;;22.60;43.50;;;;;;5137872;27;20423;-78
2022/08/06 05:13:44;;;;;;;0.80;0.80;;;22.50;43.40;;;;;;5130902;27;20479;-78
2022/08/06 05:16:12;;;;;;;0.90;0.90;;;22.50;43.50;;;;;;5133493;27;20431;-78
2022/08/06 05:18:44;;;;;;;2.30;0.80;;;22.50;43.40;;;;;;5134563;27;20492;-78
2022/08/06 05:21:34;;;;;;;1.17;0.83;;;22.40;43.40;;;;;;5134420;27;20431;-78
2022/08/06 05:24:22;;;;;;;0.90;0.90;;;22.40;44.10;;;;;;5122102;27;20465;-77
2022/08/06 05:27:10;;;;;;;0.90;0.90;;;22.50;43.50;;;;;;5113084;28;20486;-78
2022/08/06 05:29:39;;;;;;;0.83;0.83;;;22.40;43.30;;;;;;5113984;28;20442;-78
2022/08/06 05:32:16;;;;;;;1.13;0.90;;;22.50;43.40;;;;;;5113696;28;20436;-78
2022/08/06 05:34:51;;;;;;;1.23;0.90;;;22.40;43.60;;;;;;5113584;28;20469;-78
2022/08/06 05:37:21;;;;;;;0.80;0.80;;;22.40;43.50;;;;;;5113187;28;20440;-78
2022/08/06 05:40:09;;;;;;;1.10;1.00;;;22.40;43.50;;;;;;5126640;27;20447;-78
2022/08/06 05:42:39;;;;;;;1.90;0.70;;;22.40;43.50;;;;;;5133877;27;20424;-78
2022/08/06 05:45:09;;;;;;;1.40;0.90;;;22.40;43.60;;;;;;5133450;27;20465;-78
2022/08/06 05:47:38;;;;;;;0.93;0.83;;;22.40;43.50;;;;;;5133932;27;20439;-79
2022/08/06 05:50:23;;;;;;;0.80;0.80;;;22.40;43.40;;;;;;5133595;27;20431;-78
2022/08/06 05:52:55;;;;;;;0.80;0.80;;;22.40;43.60;;;;;;5133851;27;20431;-77
2022/08/06 05:55:39;;;;;;;2.20;0.87;;;22.30;43.50;;;;;;5129550;27;20476;-79
2022/08/06 05:58:08;;;;;;;0.90;0.90;;;22.30;43.50;;;;;;5136911;27;20432;-77
2022/08/06 06:00:37;;;;;;;1.43;0.90;;;22.30;43.60;;;;;;5142421;27;20425;-77
2022/08/06 06:03:12;;;;;;;0.90;0.90;;;22.30;43.50;;;;;;5133781;27;20529;-78
2022/08/06 06:05:52;;;;;;;1.00;1.00;;;22.40;43.60;;;;;;5133670;27;20463;-78
2022/08/06 06:08:42;;;;;;;0.70;0.70;;;22.40;43.70;;;;;;5133345;27;20402;-78
2022/08/06 06:11:26;;;;;;;1.10;0.77;;;22.40;43.70;;;;;;5129530;27;20458;-79
2022/08/06 06:14:28;;;;;;;0.80;0.80;;;22.40;43.80;;;;;;5126924;27;20414;-79
2022/08/06 06:17:18;;;;;;;1.20;0.93;;;22.40;43.60;;;;;;5132266;27;20469;-79
2022/08/06 06:19:50;;;;;;;1.00;1.00;;;22.50;43.70;;;;;;5133422;27;20438;-79
2022/08/06 06:22:22;;;;;;;0.80;0.80;;;22.50;43.70;;;;;;5133337;27;20443;-78
2022/08/06 06:25:00;;;;;;;0.80;0.80;;;22.50;43.70;;;;;;5133303;27;20546;-77
2022/08/06 06:27:34;;;;;;;1.17;1.10;;;22.60;43.70;;;;;;5132752;27;20616;-78
2022/08/06 06:30:16;;;;;;;1.00;0.97;;;22.70;43.70;;;;;;5124546;27;20466;-78
2022/08/06 06:33:04;;;;;;;0.70;0.70;;;22.70;43.60;;;;;;5127538;27;20495;-79
2022/08/06 06:35:42;;;;;;;0.70;0.70;;;22.80;43.60;;;;;;5140882;27;20464;-79
2022/08/06 06:38:35;;;;;;;1.10;0.80;;;22.90;43.40;;;;;;5133057;27;20443;-79
2022/08/06 06:41:18;;;;;;;0.90;0.90;;;23.00;43.50;;;;;;5132880;27;20439;-78
2022/08/06 06:43:50;;;;;;;1.10;1.00;;;23.10;43.30;;;;;;5132662;27;20458;-77
2022/08/06 06:46:23;;;;;;;1.00;0.90;;;23.20;43.30;;;;;;5132187;27;20457;-78
2022/08/06 06:49:10;;;;;;;0.80;0.80;;;23.30;43.20;;;;;;5125580;27;20402;-77
2022/08/06 06:52:00;;;;;;;0.90;0.90;;;23.30;43.20;;;;;;5112439;28;20428;-77
2022/08/06 06:54:39;;;;;;;1.20;0.80;;;23.40;43.40;;;;;;5112053;28;20422;-77
2022/08/06 06:57:12;;;;;;;1.00;1.00;;;23.50;43.50;;;;;;5111750;28;20610;-78
2022/08/06 06:59:45;;;;;;;1.07;0.80;;;23.50;43.40;;;;;;5112023;28;20418;-77
2022/08/06 07:02:35;;;;;;;0.80;0.80;;;23.70;43.60;;;;;;5129444;27;20433;-77
2022/08/06 07:05:03;;;;;;;1.30;0.90;;;23.80;43.50;;;;;;5130313;27;20469;-77
2022/08/06 07:07:36;;;;;;;0.80;0.80;;;23.90;43.50;;;;;;5129586;27;20470;-78
2022/08/06 07:10:06;;;;;;;1.03;1.00;;;24.00;43.30;;;;;;5132281;27;20445;-78
2022/08/06 07:12:41;;;;;;;1.20;0.87;;;24.10;43.20;;;;;;5132293;27;20439;-79
2022/08/06 07:15:10;;;;;;;0.83;0.83;;;24.30;43.20;;;;;;5128473;27;20466;-78
2022/08/06 07:17:45;;;;;;;0.90;0.90;;;24.50;43.20;;;;;;5132440;27;20438;-78
2022/08/06 07:20:34;;;;;;;0.80;0.80;;;24.50;43.00;;;;;;5129721;27;20447;-77
2022/08/06 07:23:04;;;;;;;0.90;0.90;;;24.60;43.00;;;;;;5131546;27;20433;-77
2022/08/06 07:25:53;;;;;;;0.90;0.90;;;24.70;43.10;;;;;;5128292;27;20423;-78
2022/08/06 07:28:25;;;;;;;1.00;0.77;;;24.90;43.20;;;;;;5131783;27;20485;-77
2022/08/06 07:30:56;;;;;;;1.37;0.80;;;25.00;43.10;;;;;;5131718;27;20463;-78
2022/08/06 07:33:32;;;;;;;0.90;0.90;;;25.10;43.30;;;;;;5128438;27;20414;-77
2022/08/06 07:36:21;;;;;;;0.70;0.70;;;25.20;43.30;;;;;;5129350;27;20393;-77
2022/08/06 07:38:54;;;;;;;1.67;0.90;;;25.30;43.50;;;;;;5127386;27;20458;-78
2022/08/06 07:41:23;;;;;;;0.90;0.90;;;25.40;43.50;;;;;;5130898;27;20442;-77
2022/08/06 07:44:12;;;;;;;1.03;0.80;;;25.50;43.50;;;;;;5130978;27;20752;-78
2022/08/06 07:46:48;;;;;;;0.77;0.77;;;25.70;43.60;;;;;;5130630;27;20497;-77
2022/08/06 07:49:20;;;;;;;1.13;1.00;;;25.80;43.70;;;;;;5129718;27;20398;-77
2022/08/06 07:51:47;;;;;;;0.77;0.77;;;26.00;43.60;;;;;;5131115;27;20406;-77
2022/08/06 07:54:16;;;;;;;0.87;0.87;;;26.10;43.60;;;;;;5130865;27;20451;-77
2022/08/06 07:57:00;;;;;;;0.83;0.83;;;26.20;43.50;;;;;;5128129;27;20471;-77
2022/08/06 07:59:31;;;;;;;0.80;0.80;;;26.40;43.60;;;;;;5130993;27;20514;-77
2022/08/06 08:01:58;;;;;;;0.80;0.80;;;26.60;43.60;;;;;;5131045;27;20430;-77
2022/08/06 08:07:20;;;;;;;0.90;0.90;;;26.80;43.70;;;;;;5129461;27;20458;-77
2022/08/06 08:10:04;;;;;;;1.00;0.90;;;27.00;43.70;;;;;;5130046;28;20492;-77
2022/08/06 08:12:32;;;;;;;0.80;0.80;;;27.20;43.60;;;;;;5130829;27;20481;-77
2022/08/06 08:15:05;;;;;;;0.90;0.90;;;27.40;43.70;;;;;;5127935;28;20541;-77
2022/08/06 08:17:49;;;;;;;0.80;0.70;;;27.50;43.50;;;;;;5131095;28;20406;-78
2022/08/06 08:20:25;;;;;;;0.70;0.70;;;27.60;43.30;;;;;;5130644;28;20413;-78
2022/08/06 08:23:02;;;;;;;1.07;0.87;;;27.70;43.20;;;;;;5130619;28;20471;-78
2022/08/06 08:25:30;;;;;;;0.90;0.90;;;27.90;43.40;;;;;;5129995;28;20455;-79
2022/08/06 08:28:11;;;;;;;0.87;0.87;;;28.10;43.40;;;;;;5130281;28;20895;-78
2022/08/06 08:30:43;;;;;;;1.30;0.90;;;28.30;43.30;;;;;;5129586;28;20443;-78
2022/08/06 08:33:16;;;;;;;0.70;0.70;;;28.50;43.10;;;;;;5130364;28;20398;-77
2022/08/06 08:35:45;;;;;;;0.60;0.60;;;28.60;42.70;;;;;;5129957;27;20454;-77
2022/08/06 08:38:27;;;;;;;0.73;0.73;;;28.70;42.60;;;;;;5130281;27;20432;-77
2022/08/06 08:40:57;;;;;;;1.20;0.83;;;28.70;42.20;;;;;;5130861;28;20509;-77
2022/08/06 08:43:26;;;;;;;0.70;0.70;;;28.70;42.40;;;;;;5130916;27;20423;-77
2022/08/06 08:46:16;;;;;;;0.80;0.80;;;28.70;42.50;;;;;;5127323;28;20417;-77
2022/08/06 08:48:57;;;;;;;0.80;0.80;;;28.80;42.60;;;;;;5125566;28;20492;-77
2022/08/06 08:51:25;;;;;;;0.83;0.83;;;29.00;42.80;;;;;;5133358;27;20442;-78
2022/08/06 08:53:54;;;;;;;0.80;0.80;;;29.00;42.70;;;;;;5134004;27;20963;-78
2022/08/06 08:56:25;;;;;;;0.80;0.70;;;29.00;42.50;;;;;;5134250;27;20457;-78
2022/08/06 08:59:13;;;;;;;0.70;0.70;;;29.00;42.60;;;;;;5134420;27;20437;-78
2022/08/06 09:02:02;;;;;;;0.80;0.70;;;29.10;42.90;;;;;;5135841;27;20401;-79
2022/08/06 09:04:31;;;;;;;0.73;0.73;;;29.20;43.10;;;;;;5134714;27;20869;-77
2022/08/06 09:07:01;;;;;;;1.97;0.80;;;29.60;43.00;;;;;;5130863;27;20451;-77
2022/08/06 09:09:29;;;;;;;0.63;0.63;;;29.80;42.70;;;;;;5133557;27;20482;-77
2022/08/06 09:11:59;;;;;;;1.07;0.97;;;30.10;42.50;;;;;;5133877;27;21013;-77
2022/08/06 09:14:35;;;;;;;0.80;0.70;;;30.20;42.10;;;;;;5125077;27;20490;-77
2022/08/06 09:17:05;;;;;;;1.07;0.70;;;30.20;41.90;;;;;;5141500;27;20405;-77
2022/08/06 09:19:39;;;;;;;0.70;0.70;;;30.20;42.00;;;;;;5150703;27;20396;-78
2022/08/06 09:22:09;;;;;;;0.70;0.70;;;30.30;42.20;;;;;;5141091;27;20410;-77
2022/08/06 09:24:38;;;;;;;2.70;0.87;;;30.50;42.10;;;;;;5131109;27;20969;-77
2022/08/06 09:27:07;;;;;;;0.97;0.70;;;30.70;42.20;;;;;;5133244;27;20431;-78
2022/08/06 09:29:56;;;;;;;0.80;0.70;;;31.00;42.10;;;;;;5134156;27;20431;-77
2022/08/06 09:32:41;;;;;;;0.67;0.60;;;31.20;41.80;;;;;;5141531;27;20429;-77
2022/08/06 09:35:23;;;;;;;0.80;0.80;;;31.40;41.60;;;;;;5153755;27;20458;-78
2022/08/06 09:38:10;;;;;;;1.00;0.70;;;31.80;41.40;;;;;;5155444;27;20431;-79
2022/08/06 09:40:56;;;;;;;0.70;0.70;;;32.20;41.60;;;;;;5137955;27;20450;-77
2022/08/06 09:43:27;;;;;;;0.70;0.70;;;32.50;40.60;;;;;;5132739;27;20434;-79
2022/08/06 09:46:15;;;;;;;3.97;0.80;;;32.80;40.30;;;;;;5116761;28;20444;-78
2022/08/06 09:49:01;;;;;;;0.80;0.73;;;32.90;39.90;;;;;;5134305;27;20992;-80
2022/08/06 09:51:50;;;;;;;0.90;0.77;;;33.00;39.50;;;;;;5134805;27;20461;-79
2022/08/06 09:54:21;;;;;;;1.77;0.80;;;33.10;39.20;;;;;;5134042;27;20486;-80
2022/08/06 09:56:57;;;;;;;0.70;0.70;;;33.10;39.20;;;;;;5134644;27;21136;-79
2022/08/06 09:59:25;;;;;;;0.77;0.77;;;33.20;39.50;;;;;;5133795;27;20929;-79
2022/08/06 10:01:58;;;;;;;1.63;0.83;;;33.50;39.40;;;;;;5133843;27;20443;-79
2022/08/06 10:04:29;;;;;;;0.80;0.80;;;33.80;39.20;;;;;;5135055;27;20490;-80
2022/08/06 10:07:04;;;;;;;2.03;0.90;;;33.90;38.60;;;;;;5134821;27;20451;-81
2022/08/06 10:09:37;;;;;;;0.80;0.80;;;33.90;38.30;;;;;;5134133;27;20474;-80
2022/08/06 10:12:18;;;;;;;1.50;0.87;;;33.80;38.20;;;;;;5133317;27;20520;-80
2022/08/06 10:14:48;;;;;;;2.20;0.80;;;33.80;38.80;;;;;;5134262;27;21012;-81
2022/08/06 10:17:19;;;;;;;0.80;0.80;;;33.90;38.70;;;;;;5134091;27;20434;-80
2022/08/06 10:20:04;;;;;;;1.00;0.87;;;34.10;38.80;;;;;;5133913;27;20427;-80
2022/08/06 10:22:36;;;;;;;2.20;1.03;;;34.20;38.70;;;;;;5133792;27;20435;-80
2022/08/06 10:25:08;;;;;;;2.40;0.80;;;34.50;38.60;;;;;;5133030;27;20467;-80
2022/08/06 10:27:40;;;;;;;1.27;0.90;;;34.80;38.30;;;;;;5135252;27;20431;-80
2022/08/06 10:30:09;;;;;;;1.03;0.80;;;35.00;38.00;;;;;;5137082;27;20446;-81
2022/08/06 10:32:40;;;;;;;1.90;0.90;;;35.20;37.60;;;;;;5127987;27;20459;-80
2022/08/06 10:35:12;;;;;;;0.77;0.77;;;35.20;37.30;;;;;;5133983;27;20479;-77
2022/08/06 10:37:42;;;;;;;0.80;0.80;;;35.40;37.30;;;;;;5123463;27;20446;-78
2022/08/06 10:40:24;;;;;;;1.67;0.87;;;35.50;36.90;;;;;;5130714;27;20467;-79
2022/08/06 10:42:58;;;;;;;2.30;0.87;;;35.40;36.70;;;;;;5133012;27;20434;-78
2022/08/06 10:45:27;;;;;;;2.00;0.80;;;35.20;37.30;;;;;;5127176;27;20508;-79
2022/08/06 10:48:15;;;;;;;0.93;0.83;;;35.20;36.80;;;;;;5132776;27;20454;-77
2022/08/06 10:51:06;;;;;;;0.80;0.80;;;35.20;36.80;;;;;;5125067;27;20438;-78
2022/08/06 10:53:34;;;;;;;1.17;1.07;;;35.10;36.80;;;;;;5127935;27;20447;-77
2022/08/06 10:56:22;;;;;;;2.10;0.90;;;34.80;36.20;;;;;;5130903;27;20431;-77
2022/08/06 10:58:55;;;;;;;3.60;1.10;;;34.70;36.40;;;;;;5132181;27;20435;-77
2022/08/06 11:01:28;;;;;;;4.70;1.10;;;34.60;36.40;;;;;;5132497;27;20442;-76
2022/08/06 11:04:22;;;;;;;3.63;0.97;;;34.50;36.20;;;;;;5132168;27;20840;-77
2022/08/06 11:07:01;;;;;;;2.03;1.00;;;34.30;36.40;;;;;;5130795;27;20443;-77
2022/08/06 11:09:54;;;;;;;1.90;0.83;;;34.20;36.40;;;;;;5129464;27;20481;-77
2022/08/06 11:12:37;;;;;;;0.83;0.83;;;34.00;36.50;;;;;;5127002;27;20435;-77
2022/08/06 11:15:07;;;;;;;1.63;1.00;;;33.90;36.60;;;;;;5131846;27;20470;-76
2022/08/06 11:17:47;;;;;;;1.53;1.10;;;33.70;36.50;;;;;;5131645;27;20985;-75
2022/08/06 11:20:43;;;;;;;3.93;1.10;;;33.60;36.60;;;;;;5130772;27;20439;-76
2022/08/06 11:23:32;;;;;;;2.50;1.10;;;33.50;36.70;;;;;;5074900;28;20994;-76
2022/08/06 11:26:33;;;;;;;2.20;0.80;;;33.30;36.80;;;;;;5120715;27;20420;-76
2022/08/06 11:29:06;;;;;;;1.00;1.00;;;33.20;36.80;;;;;;5131241;27;20878;-76
2022/08/06 11:31:35;;;;;;;1.13;0.90;;;33.10;36.90;;;;;;5131754;27;20439;-76
2022/08/06 11:34:06;;;;;;;2.70;0.90;;;33.10;36.80;;;;;;5132044;27;20463;-76
2022/08/06 11:36:49;;;;;;;0.80;0.80;;;33.00;36.80;;;;;;5130340;27;20443;-76
2022/08/06 11:39:27;;;;;;;2.90;1.10;;;33.00;36.80;;;;;;5130699;27;20459;-76
2022/08/06 11:42:14;;;;;;;2.40;1.17;;;33.00;36.80;;;;;;5124873;27;20427;-77
2022/08/06 11:45:00;;;;;;;0.80;0.80;;;33.10;36.80;;;;;;5129206;27;20467;-77
2022/08/06 11:48:04;;;;;;;1.20;0.83;;;33.50;37.50;;;;;;5131525;27;20427;-77
2022/08/06 11:50:33;;;;;;;2.63;0.70;;;33.70;36.10;;;;;;5131636;27;20470;-76
2022/08/06 11:53:02;;;;;;;1.60;0.80;;;33.80;36.00;;;;;;5130982;27;20439;-76
2022/08/06 11:55:33;;;;;;;1.10;0.70;;;33.80;35.80;;;;;;5125486;27;20472;-77
2022/08/06 11:58:22;;;;;;;2.60;0.80;;;33.90;35.80;;;;;;5129829;27;20945;-76
2022/08/06 12:00:57;;;;;;;1.60;0.80;;;34.90;37.20;;;;;;5131289;27;20462;-77
2022/08/06 12:03:38;;;;;;;0.77;0.60;;;36.90;33.60;;;;;;5130925;27;20458;-77
2022/08/06 12:06:20;;;;;;;0.70;0.70;;;39.10;31.50;;;;;;5130253;27;20443;-77
2022/08/06 12:09:08;;;;;;;0.90;0.80;;;40.90;29.50;;;;;;5130014;27;20485;-78
2022/08/06 12:11:45;;;;;;;1.63;0.70;;;41.20;29.00;;;;;;5124499;28;20835;-77
2022/08/06 12:14:48;;;;;;;0.70;0.60;;;41.20;27.80;;;;;;5128956;27;20973;-78
2022/08/06 12:17:21;;;;;;;0.90;0.70;;;40.30;28.40;;;;;;5026590;28;21036;-77
2022/08/06 12:19:50;;;;;;;0.80;0.80;;;39.70;28.60;;;;;;5026598;28;20470;-77
2022/08/06 12:22:29;;;;;;;0.70;0.70;;;39.00;29.00;;;;;;5084993;28;20491;-76
2022/08/06 12:28:41;;;;;;;0.90;0.80;;;37.30;30.00;;;;;;5127682;27;20943;-77
2022/08/06 12:48:57;;;;;;;3.10;1.00;;;33.20;31.20;;;;;;5007727;28;20505;-80
2022/08/06 12:51:28;;;;;;;1.83;1.07;;;32.40;32.80;;;;;;4971370;28;20492;-78
2022/08/06 12:53:58;;;;;;;3.97;0.83;;;32.00;33.20;;;;;;4954140;28;20514;-78
2022/08/06 12:56:28;;;;;;;4.00;1.00;;;31.60;33.80;;;;;;4946974;28;20494;-78
2022/08/06 12:59:01;;;;;;;1.23;0.70;;;31.30;34.30;;;;;;4956859;29;20450;-79
2022/08/06 13:01:31;;;;;;;2.73;0.93;;;31.20;34.60;;;;;;4957728;29;20457;-79
2022/08/06 13:04:20;;;;;;;2.57;1.17;;;31.00;34.80;;;;;;4957904;29;20446;-79
2022/08/06 13:06:56;;;;;;;1.10;1.00;;;30.90;35.00;;;;;;4956880;29;20431;-78
2022/08/06 13:09:30;;;;;;;2.30;0.90;;;30.80;35.20;;;;;;4956194;29;20489;-78
2022/08/06 13:12:12;;;;;;;1.00;0.90;;;30.70;35.20;;;;;;4957332;29;20464;-78
2022/08/06 13:14:57;;;;;;;1.40;1.10;;;30.70;35.30;;;;;;4958303;29;20552;-78
2022/08/06 13:17:49;;;;;;;2.40;1.00;;;31.10;35.70;;;;;;4957902;29;20451;-79
2022/08/06 13:20:37;;;;;;;1.03;1.03;;;31.60;33.30;;;;;;4957743;29;20438;-79
2022/08/06 13:23:07;;;;;;;12.80;1.20;;;31.80;33.00;;;;;;4957467;28;20448;-78
2022/08/06 13:25:42;;;;;;;3.70;1.20;;;32.10;32.90;;;;;;4956880;29;20447;-79
2022/08/06 13:28:21;;;;;;;6.53;1.30;;;31.90;32.40;;;;;;4956656;29;20454;-79
2022/08/06 13:30:56;;;;;;;3.10;1.20;;;31.70;32.30;;;;;;4956739;29;20477;-79
2022/08/06 13:33:28;;;;;;;3.80;1.50;;;31.60;32.40;;;;;;4956210;29;20534;-79
2022/08/06 13:36:07;;;;;;;1.50;1.40;;;31.40;32.60;;;;;;4954983;28;20443;-78
2022/08/06 13:38:40;;;;;;;2.43;1.17;;;31.40;32.80;;;;;;4956327;29;20449;-78
2022/08/06 13:41:09;;;;;;;1.53;1.20;;;31.70;33.00;;;;;;4956036;29;20450;-79
2022/08/06 13:43:41;;;;;;;1.63;1.33;;;32.10;32.60;;;;;;4954734;29;20471;-78
2022/08/06 13:46:25;;;;;;;1.40;1.30;;;32.20;32.00;;;;;;4953950;28;20501;-78
2022/08/06 13:48:57;;;;;;;1.40;1.30;;;32.10;32.10;;;;;;4953439;29;20828;-79
2022/08/06 13:51:29;;;;;;;1.60;1.50;;;32.00;32.00;;;;;;4953946;29;20530;-79
2022/08/06 13:54:03;;;;;;;5.03;1.30;;;31.80;32.30;;;;;;4981088;28;20518;-79
2022/08/06 13:56:46;;;;;;;2.40;1.40;;;31.50;32.60;;;;;;5002384;28;20822;-79
2022/08/06 13:59:18;;;;;;;2.73;1.50;;;31.20;32.90;;;;;;5013567;28;20456;-78
2022/08/06 14:01:48;;;;;;;2.83;1.50;;;31.10;33.00;;;;;;5013656;28;20444;-79